sensor_id;sensor_type;location;lat;lon;timestamp;pressure;altitude;pressure_sealevel;temperature;humidity
4590;BME280;2307;48.448;9.216;2023-03-01T00:01:23;95995.91;;;-0.78;100.00
4590;BME280;2307;48.448;9.216;2023-03-01T00:03:51;95990.13;;;-0.72;100.00
4590;BME280;2307;48.448;9.216;2023-03-01T00:06:18;95993.31;;;-0.78;100.00
4590;BME280;2307;48.448;9.216;2023-03-01T00:08:44;95999.66;;;-0.73;100.00
4590;BME280;2307;48.448;9.216;2023-03-01T00:11:12;95993.69;;;-0.73;100.00
4590;BME280;2307;48.448;9.216;2023-03-01T00:13:39;95995.59;;;-0.75;100.00
4590;BME280;2307;48.448;9.216;2023-03-01T00:16:07;95996.44;;;-0.75;100.00
4590;BME280;2307;48.448;9.216;2023-03-01T00:18:34;95989.69;;;-0.85;100.00
4590;BME280;2307;48.448;9.216;2023-03-01T00:21:02;95984.16;;;-0.90;100.00
4590;BME280;2307;48.448;9.216;2023-03-01T00:23:29;95986.38;;;-0.95;100.00
4590;BME280;2307;48.448;9.216;2023-03-01T00:25:55;95979.19;;;-1.01;100.00
4590;BME280;2307;48.448;9.216;2023-03-01T00:28:21;95984.97;;;-1.08;100.00
4590;BME280;2307;48.448;9.216;2023-03-01T00:30:48;95983.63;;;-0.94;100.00
4590;BME280;2307;48.448;9.216;2023-03-01T00:33:14;95974.00;;;-1.01;100.00
4590;BME280;2307;48.448;9.216;2023-03-01T00:35:41;95977.56;;;-1.02;100.00
4590;BME280;2307;48.448;9.216;2023-03-01T00:38:09;95975.59;;;-1.09;100.00
4590;BME280;2307;48.448;9.216;2023-03-01T00:40:35;95975.72;;;-1.10;100.00
4590;BME280;2307;48.448;9.216;2023-03-01T00:43:01;95974.84;;;-1.19;100.00
4590;BME280;2307;48.448;9.216;2023-03-01T00:45:28;95966.16;;;-1.10;100.00
4590;BME280;2307;48.448;9.216;2023-03-01T00:47:56;95976.84;;;-1.13;100.00
4590;BME280;2307;48.448;9.216;2023-03-01T00:50:23;95963.44;;;-1.08;100.00
4590;BME280;2307;48.448;9.216;2023-03-01T00:52:51;95965.66;;;-1.13;100.00
4590;BME280;2307;48.448;9.216;2023-03-01T00:55:19;95967.72;;;-1.17;100.00
4590;BME280;2307;48.448;9.216;2023-03-01T00:57:45;95964.09;;;-1.24;100.00
4590;BME280;2307;48.448;9.216;2023-03-01T01:00:12;95959.34;;;-1.11;100.00
4590;BME280;2307;48.448;9.216;2023-03-01T01:02:38;95958.56;;;-1.11;100.00
4590;BME280;2307;48.448;9.216;2023-03-01T01:05:05;95956.59;;;-1.27;100.00
4590;BME280;2307;48.448;9.216;2023-03-01T01:07:31;95958.41;;;-1.27;100.00
4590;BME280;2307;48.448;9.216;2023-03-01T01:09:58;95950.78;;;-1.29;100.00
4590;BME280;2307;48.448;9.216;2023-03-01T01:12:26;95963.13;;;-1.23;100.00
4590;BME280;2307;48.448;9.216;2023-03-01T01:14:52;95952.31;;;-1.36;100.00
4590;BME280;2307;48.448;9.216;2023-03-01T01:17:18;95951.50;;;-1.19;100.00
4590;BME280;2307;48.448;9.216;2023-03-01T01:19:45;95948.84;;;-1.27;100.00
4590;BME280;2307;48.448;9.216;2023-03-01T01:22:11;95945.81;;;-1.40;100.00
4590;BME280;2307;48.448;9.216;2023-03-01T01:24:37;95939.16;;;-1.25;100.00
4590;BME280;2307;48.448;9.216;2023-03-01T01:27:04;95941.44;;;-1.22;100.00
4590;BME280;2307;48.448;9.216;2023-03-01T01:29:32;95939.16;;;-1.25;100.00
4590;BME280;2307;48.448;9.216;2023-03-01T01:31:58;95940.63;;;-1.22;100.00
4590;BME280;2307;48.448;9.216;2023-03-01T01:34:24;95934.63;;;-1.23;100.00
4590;BME280;2307;48.448;9.216;2023-03-01T01:36:52;95935.59;;;-1.24;100.00
4590;BME280;2307;48.448;9.216;2023-03-01T01:39:19;95942.03;;;-1.28;100.00
4590;BME280;2307;48.448;9.216;2023-03-01T01:41:45;95934.34;;;-1.20;100.00
4590;BME280;2307;48.448;9.216;2023-03-01T01:44:16;95934.03;;;-1.17;100.00
4590;BME280;2307;48.448;9.216;2023-03-01T01:46:44;95935.75;;;-1.25;100.00
4590;BME280;2307;48.448;9.216;2023-03-01T01:49:15;95933.72;;;-1.14;100.00
4590;BME280;2307;48.448;9.216;2023-03-01T01:51:43;95936.72;;;-1.09;100.00
4590;BME280;2307;48.448;9.216;2023-03-01T01:54:14;95932.53;;;-1.01;100.00
4590;BME280;2307;48.448;9.216;2023-03-01T01:56:43;95935.19;;;-0.93;100.00
4590;BME280;2307;48.448;9.216;2023-03-01T01:59:10;95931.66;;;-0.92;100.00
4590;BME280;2307;48.448;9.216;2023-03-01T02:01:37;95927.16;;;-0.82;100.00
4590;BME280;2307;48.448;9.216;2023-03-01T02:04:05;95928.59;;;-0.88;100.00
4590;BME280;2307;48.448;9.216;2023-03-01T02:06:33;95929.44;;;-0.79;100.00
4590;BME280;2307;48.448;9.216;2023-03-01T02:09:02;95921.28;;;-0.92;100.00
4590;BME280;2307;48.448;9.216;2023-03-01T02:11:31;95911.50;;;-0.98;100.00
4590;BME280;2307;48.448;9.216;2023-03-01T02:13:58;95915.97;;;-1.09;100.00
4590;BME280;2307;48.448;9.216;2023-03-01T02:16:25;95908.63;;;-0.95;100.00
4590;BME280;2307;48.448;9.216;2023-03-01T02:18:51;95907.22;;;-0.82;100.00
4590;BME280;2307;48.448;9.216;2023-03-01T02:21:23;95906.94;;;-0.79;100.00
4590;BME280;2307;48.448;9.216;2023-03-01T02:23:53;95900.53;;;-0.92;100.00
4590;BME280;2307;48.448;9.216;2023-03-01T02:26:23;95899.97;;;-0.78;100.00
4590;BME280;2307;48.448;9.216;2023-03-01T02:28:53;95905.16;;;-0.78;100.00
4590;BME280;2307;48.448;9.216;2023-03-01T02:31:19;95906.41;;;-0.82;100.00
4590;BME280;2307;48.448;9.216;2023-03-01T02:34:04;95891.88;;;-0.75;100.00
4590;BME280;2307;48.448;9.216;2023-03-01T02:36:31;95890.75;;;-0.73;100.00
4590;BME280;2307;48.448;9.216;2023-03-01T02:39:00;95885.25;;;-0.70;100.00
4590;BME280;2307;48.448;9.216;2023-03-01T02:41:28;95883.75;;;-0.80;100.00
4590;BME280;2307;48.448;9.216;2023-03-01T02:43:58;95887.28;;;-0.89;100.00
4590;BME280;2307;48.448;9.216;2023-03-01T02:46:25;95888.44;;;-0.84;100.00
4590;BME280;2307;48.448;9.216;2023-03-01T02:48:52;95881.50;;;-0.75;100.00
4590;BME280;2307;48.448;9.216;2023-03-01T02:51:23;95876.13;;;-0.82;100.00
4590;BME280;2307;48.448;9.216;2023-03-01T02:53:54;95877.97;;;-0.74;100.00
4590;BME280;2307;48.448;9.216;2023-03-01T02:56:24;95877.75;;;-0.81;100.00
4590;BME280;2307;48.448;9.216;2023-03-01T02:58:51;95875.31;;;-0.82;100.00
4590;BME280;2307;48.448;9.216;2023-03-01T03:01:19;95866.56;;;-0.81;100.00
4590;BME280;2307;48.448;9.216;2023-03-01T03:03:46;95868.13;;;-0.88;100.00
4590;BME280;2307;48.448;9.216;2023-03-01T03:06:12;95861.88;;;-0.78;100.00
4590;BME280;2307;48.448;9.216;2023-03-01T03:08:39;95864.34;;;-0.76;100.00
4590;BME280;2307;48.448;9.216;2023-03-01T03:11:05;95855.63;;;-0.67;100.00
4590;BME280;2307;48.448;9.216;2023-03-01T03:13:31;95854.63;;;-0.74;100.00
4590;BME280;2307;48.448;9.216;2023-03-01T03:15:58;95855.78;;;-0.69;100.00
4590;BME280;2307;48.448;9.216;2023-03-01T03:18:26;95857.91;;;-0.64;100.00
4590;BME280;2307;48.448;9.216;2023-03-01T03:20:52;95851.09;;;-0.65;100.00
4590;BME280;2307;48.448;9.216;2023-03-01T03:23:19;95848.47;;;-0.73;100.00
4590;BME280;2307;48.448;9.216;2023-03-01T03:25:47;95860.44;;;-0.72;100.00
4590;BME280;2307;48.448;9.216;2023-03-01T03:28:13;95843.97;;;-0.63;100.00
4590;BME280;2307;48.448;9.216;2023-03-01T03:30:40;95844.47;;;-0.60;100.00
4590;BME280;2307;48.448;9.216;2023-03-01T03:33:08;95846.28;;;-0.52;100.00
4590;BME280;2307;48.448;9.216;2023-03-01T03:35:37;95845.28;;;-0.59;100.00
4590;BME280;2307;48.448;9.216;2023-03-01T03:38:05;95841.06;;;-0.60;100.00
4590;BME280;2307;48.448;9.216;2023-03-01T03:40:35;95834.56;;;-0.64;100.00
4590;BME280;2307;48.448;9.216;2023-03-01T03:43:01;95839.41;;;-0.69;100.00
4590;BME280;2307;48.448;9.216;2023-03-01T03:45:28;95836.16;;;-0.71;100.00
4590;BME280;2307;48.448;9.216;2023-03-01T03:47:54;95837.38;;;-0.58;100.00
4590;BME280;2307;48.448;9.216;2023-03-01T03:50:21;95833.03;;;-0.41;100.00
4590;BME280;2307;48.448;9.216;2023-03-01T03:52:48;95833.28;;;-0.60;100.00
4590;BME280;2307;48.448;9.216;2023-03-01T03:55:15;95843.31;;;-0.65;100.00
4590;BME280;2307;48.448;9.216;2023-03-01T03:57:44;95839.13;;;-0.58;100.00
4590;BME280;2307;48.448;9.216;2023-03-01T04:00:16;95838.94;;;-0.65;100.00
4590;BME280;2307;48.448;9.216;2023-03-01T04:02:45;95840.75;;;-0.57;100.00
4590;BME280;2307;48.448;9.216;2023-03-01T04:05:13;95833.66;;;-0.47;100.00
4590;BME280;2307;48.448;9.216;2023-03-01T04:07:40;95832.25;;;-0.41;100.00
4590;BME280;2307;48.448;9.216;2023-03-01T04:10:13;95834.97;;;-0.43;100.00
4590;BME280;2307;48.448;9.216;2023-03-01T04:12:40;95841.41;;;-0.55;100.00
4590;BME280;2307;48.448;9.216;2023-03-01T04:15:08;95821.44;;;-0.63;100.00
4590;BME280;2307;48.448;9.216;2023-03-01T04:17:38;95829.38;;;-0.64;100.00
4590;BME280;2307;48.448;9.216;2023-03-01T04:20:05;95839.25;;;-0.68;100.00
4590;BME280;2307;48.448;9.216;2023-03-01T04:22:33;95837.09;;;-0.80;100.00
4590;BME280;2307;48.448;9.216;2023-03-01T04:24:59;95827.22;;;-0.77;100.00
4590;BME280;2307;48.448;9.216;2023-03-01T04:27:32;95838.41;;;-0.76;100.00
4590;BME280;2307;48.448;9.216;2023-03-01T04:29:58;95830.47;;;-0.75;100.00
4590;BME280;2307;48.448;9.216;2023-03-01T04:32:25;95822.84;;;-0.76;100.00
4590;BME280;2307;48.448;9.216;2023-03-01T04:34:51;95826.75;;;-0.72;100.00
4590;BME280;2307;48.448;9.216;2023-03-01T04:37:17;95811.53;;;-0.67;100.00
4590;BME280;2307;48.448;9.216;2023-03-01T04:39:44;95814.47;;;-0.62;100.00
4590;BME280;2307;48.448;9.216;2023-03-01T04:42:12;95815.59;;;-0.65;100.00
4590;BME280;2307;48.448;9.216;2023-03-01T04:44:40;95803.78;;;-0.59;100.00
4590;BME280;2307;48.448;9.216;2023-03-01T04:47:06;95802.66;;;-0.57;100.00
4590;BME280;2307;48.448;9.216;2023-03-01T04:49:32;95808.63;;;-0.64;100.00
4590;BME280;2307;48.448;9.216;2023-03-01T04:51:59;95817.69;;;-0.68;100.00
4590;BME280;2307;48.448;9.216;2023-03-01T04:54:27;95808.59;;;-0.72;100.00
4590;BME280;2307;48.448;9.216;2023-03-01T04:56:53;95798.50;;;-0.83;100.00
4590;BME280;2307;48.448;9.216;2023-03-01T04:59:19;95807.56;;;-0.87;100.00
4590;BME280;2307;48.448;9.216;2023-03-01T05:01:48;95809.00;;;-0.85;100.00
4590;BME280;2307;48.448;9.216;2023-03-01T05:04:15;95803.22;;;-0.79;100.00
4590;BME280;2307;48.448;9.216;2023-03-01T05:06:41;95804.81;;;-0.86;100.00
4590;BME280;2307;48.448;9.216;2023-03-01T05:09:07;95799.97;;;-0.81;100.00
4590;BME280;2307;48.448;9.216;2023-03-01T05:11:34;95803.41;;;-0.72;100.00
4590;BME280;2307;48.448;9.216;2023-03-01T05:14:01;95809.53;;;-0.81;100.00
4590;BME280;2307;48.448;9.216;2023-03-01T05:16:27;95807.44;;;-0.78;100.00
4590;BME280;2307;48.448;9.216;2023-03-01T05:18:57;95805.97;;;-0.80;100.00
4590;BME280;2307;48.448;9.216;2023-03-01T05:21:23;95797.88;;;-0.77;100.00
4590;BME280;2307;48.448;9.216;2023-03-01T05:23:49;95801.47;;;-0.70;100.00
4590;BME280;2307;48.448;9.216;2023-03-01T05:26:17;95794.84;;;-0.65;100.00
4590;BME280;2307;48.448;9.216;2023-03-01T05:28:43;95797.09;;;-0.70;100.00
4590;BME280;2307;48.448;9.216;2023-03-01T05:31:10;95801.59;;;-0.80;100.00
4590;BME280;2307;48.448;9.216;2023-03-01T05:33:36;95811.84;;;-0.70;100.00
4590;BME280;2307;48.448;9.216;2023-03-01T05:36:04;95808.91;;;-0.75;100.00
4590;BME280;2307;48.448;9.216;2023-03-01T05:38:31;95812.16;;;-0.73;100.00
4590;BME280;2307;48.448;9.216;2023-03-01T05:40:57;95806.28;;;-0.83;100.00
4590;BME280;2307;48.448;9.216;2023-03-01T05:43:23;95805.19;;;-0.73;100.00
4590;BME280;2307;48.448;9.216;2023-03-01T05:45:50;95807.75;;;-0.81;100.00
4590;BME280;2307;48.448;9.216;2023-03-01T05:48:16;95809.13;;;-0.94;100.00
4590;BME280;2307;48.448;9.216;2023-03-01T05:50:44;95807.22;;;-0.92;100.00
4590;BME280;2307;48.448;9.216;2023-03-01T05:53:17;95795.53;;;-0.88;100.00
4590;BME280;2307;48.448;9.216;2023-03-01T05:55:46;95802.78;;;-1.00;100.00
4590;BME280;2307;48.448;9.216;2023-03-01T05:58:13;95805.69;;;-1.03;100.00
4590;BME280;2307;48.448;9.216;2023-03-01T06:00:40;95807.75;;;-1.07;100.00
4590;BME280;2307;48.448;9.216;2023-03-01T06:03:09;95803.63;;;-0.91;100.00
4590;BME280;2307;48.448;9.216;2023-03-01T06:05:35;95805.88;;;-0.96;100.00
4590;BME280;2307;48.448;9.216;2023-03-01T06:08:02;95808.09;;;-1.01;100.00
4590;BME280;2307;48.448;9.216;2023-03-01T06:10:30;95807.72;;;-0.89;100.00
4590;BME280;2307;48.448;9.216;2023-03-01T06:12:56;95803.00;;;-0.85;100.00
4590;BME280;2307;48.448;9.216;2023-03-01T06:15:23;95796.88;;;-0.84;100.00
4590;BME280;2307;48.448;9.216;2023-03-01T06:17:50;95799.94;;;-0.89;100.00
4590;BME280;2307;48.448;9.216;2023-03-01T06:20:17;95797.81;;;-0.85;100.00
4590;BME280;2307;48.448;9.216;2023-03-01T06:22:43;95798.50;;;-0.83;100.00
4590;BME280;2307;48.448;9.216;2023-03-01T06:25:10;95803.91;;;-0.69;100.00
4590;BME280;2307;48.448;9.216;2023-03-01T06:27:38;95804.72;;;-0.68;100.00
4590;BME280;2307;48.448;9.216;2023-03-01T06:30:06;95805.16;;;-0.81;100.00
4590;BME280;2307;48.448;9.216;2023-03-01T06:32:32;95806.47;;;-0.77;100.00
4590;BME280;2307;48.448;9.216;2023-03-01T06:34:59;95806.72;;;-0.88;100.00
4590;BME280;2307;48.448;9.216;2023-03-01T06:37:25;95807.56;;;-0.79;100.00
4590;BME280;2307;48.448;9.216;2023-03-01T06:39:52;95802.09;;;-0.76;100.00
4590;BME280;2307;48.448;9.216;2023-03-01T06:42:18;95801.81;;;-0.65;100.00
4590;BME280;2307;48.448;9.216;2023-03-01T06:44:46;95800.53;;;-0.61;100.00
4590;BME280;2307;48.448;9.216;2023-03-01T06:47:12;95800.84;;;-0.64;100.00
4590;BME280;2307;48.448;9.216;2023-03-01T06:49:38;95790.50;;;-0.64;100.00
4590;BME280;2307;48.448;9.216;2023-03-01T06:52:05;95797.28;;;-0.63;100.00
4590;BME280;2307;48.448;9.216;2023-03-01T06:54:31;95795.31;;;-0.69;100.00
4590;BME280;2307;48.448;9.216;2023-03-01T06:56:57;95786.19;;;-0.81;100.00
4590;BME280;2307;48.448;9.216;2023-03-01T06:59:24;95785.88;;;-0.78;100.00
4590;BME280;2307;48.448;9.216;2023-03-01T07:01:51;95793.66;;;-0.78;100.00
4590;BME280;2307;48.448;9.216;2023-03-01T07:04:18;95786.56;;;-0.68;100.00
4590;BME280;2307;48.448;9.216;2023-03-01T07:06:44;95783.78;;;-0.75;100.00
4590;BME280;2307;48.448;9.216;2023-03-01T07:09:10;95779.06;;;-0.79;100.00
4590;BME280;2307;48.448;9.216;2023-03-01T07:11:37;95787.72;;;-0.63;100.00
4590;BME280;2307;48.448;9.216;2023-03-01T07:14:03;95781.41;;;-0.60;100.00
4590;BME280;2307;48.448;9.216;2023-03-01T07:16:30;95788.72;;;-0.64;100.00
4590;BME280;2307;48.448;9.216;2023-03-01T07:18:58;95779.16;;;-0.55;100.00
4590;BME280;2307;48.448;9.216;2023-03-01T07:21:24;95778.03;;;-0.61;100.00
4590;BME280;2307;48.448;9.216;2023-03-01T07:23:51;95772.84;;;-0.61;100.00
4590;BME280;2307;48.448;9.216;2023-03-01T07:26:17;95768.56;;;-0.70;100.00
4590;BME280;2307;48.448;9.216;2023-03-01T07:28:43;95765.31;;;-0.72;100.00
4590;BME280;2307;48.448;9.216;2023-03-01T07:31:10;95768.09;;;-0.65;100.00
4590;BME280;2307;48.448;9.216;2023-03-01T07:33:36;95759.16;;;-0.71;100.00
4590;BME280;2307;48.448;9.216;2023-03-01T07:36:04;95766.72;;;-0.85;100.00
4590;BME280;2307;48.448;9.216;2023-03-01T07:38:31;95765.22;;;-0.96;100.00
4590;BME280;2307;48.448;9.216;2023-03-01T07:40:58;95773.00;;;-0.96;100.00
4590;BME280;2307;48.448;9.216;2023-03-01T07:43:25;95765.75;;;-0.84;100.00
4590;BME280;2307;48.448;9.216;2023-03-01T07:45:51;95766.72;;;-0.85;100.00
4590;BME280;2307;48.448;9.216;2023-03-01T07:48:17;95766.06;;;-0.87;100.00
4590;BME280;2307;48.448;9.216;2023-03-01T07:50:44;95763.34;;;-0.86;100.00
4590;BME280;2307;48.448;9.216;2023-03-01T07:53:12;95766.47;;;-0.66;100.00
4590;BME280;2307;48.448;9.216;2023-03-01T07:55:38;95756.97;;;-0.58;100.00
4590;BME280;2307;48.448;9.216;2023-03-01T07:58:04;95758.78;;;-0.42;100.00
4590;BME280;2307;48.448;9.216;2023-03-01T08:00:31;95749.53;;;-0.28;100.00
4590;BME280;2307;48.448;9.216;2023-03-01T08:02:58;95745.19;;;-0.28;100.00
4590;BME280;2307;48.448;9.216;2023-03-01T08:05:25;95742.13;;;-0.23;100.00
4590;BME280;2307;48.448;9.216;2023-03-01T08:07:51;95744.53;;;-0.22;100.00
4590;BME280;2307;48.448;9.216;2023-03-01T08:10:19;95741.97;;;-0.14;100.00
4590;BME280;2307;48.448;9.216;2023-03-01T08:12:46;95743.25;;;-0.18;100.00
4590;BME280;2307;48.448;9.216;2023-03-01T08:15:12;95744.25;;;-0.11;100.00
4590;BME280;2307;48.448;9.216;2023-03-01T08:17:38;95742.13;;;-0.15;100.00
4590;BME280;2307;48.448;9.216;2023-03-01T08:20:05;95742.91;;;-0.31;100.00
4590;BME280;2307;48.448;9.216;2023-03-01T08:22:32;95743.25;;;-0.26;100.00
4590;BME280;2307;48.448;9.216;2023-03-01T08:24:58;95747.47;;;-0.17;100.00
4590;BME280;2307;48.448;9.216;2023-03-01T08:27:26;95738.41;;;-0.05;100.00
4590;BME280;2307;48.448;9.216;2023-03-01T08:29:53;95745.22;;;-0.04;100.00
4590;BME280;2307;48.448;9.216;2023-03-01T08:32:19;95739.56;;;0.09;100.00
4590;BME280;2307;48.448;9.216;2023-03-01T08:34:46;95740.03;;;0.21;100.00
4590;BME280;2307;48.448;9.216;2023-03-01T08:37:12;95744.56;;;0.27;100.00
4590;BME280;2307;48.448;9.216;2023-03-01T08:39:38;95731.41;;;0.44;100.00
4590;BME280;2307;48.448;9.216;2023-03-01T08:42:05;95727.34;;;0.42;100.00
4590;BME280;2307;48.448;9.216;2023-03-01T08:44:32;95732.88;;;0.47;100.00
4590;BME280;2307;48.448;9.216;2023-03-01T08:47:00;95723.28;;;0.39;100.00
4590;BME280;2307;48.448;9.216;2023-03-01T08:49:27;95723.44;;;0.54;100.00
4590;BME280;2307;48.448;9.216;2023-03-01T08:51:53;95726.06;;;0.38;100.00
4590;BME280;2307;48.448;9.216;2023-03-01T08:54:20;95711.59;;;0.35;100.00
4590;BME280;2307;48.448;9.216;2023-03-01T08:56:47;95723.13;;;0.33;100.00
4590;BME280;2307;48.448;9.216;2023-03-01T08:59:14;95719.41;;;0.43;100.00
4590;BME280;2307;48.448;9.216;2023-03-01T09:01:42;95717.63;;;0.44;100.00
4590;BME280;2307;48.448;9.216;2023-03-01T09:04:09;95710.13;;;0.57;100.00
4590;BME280;2307;48.448;9.216;2023-03-01T09:06:36;95704.88;;;0.73;100.00
4590;BME280;2307;48.448;9.216;2023-03-01T09:09:03;95702.94;;;0.75;100.00
4590;BME280;2307;48.448;9.216;2023-03-01T09:11:29;95709.88;;;0.83;100.00
4590;BME280;2307;48.448;9.216;2023-03-01T09:13:56;95705.16;;;0.94;100.00
4590;BME280;2307;48.448;9.216;2023-03-01T09:16:22;95699.63;;;0.97;100.00
4590;BME280;2307;48.448;9.216;2023-03-01T09:18:50;95710.50;;;1.01;100.00
4590;BME280;2307;48.448;9.216;2023-03-01T09:21:17;95707.22;;;1.07;100.00
4590;BME280;2307;48.448;9.216;2023-03-01T09:23:45;95705.72;;;1.13;100.00
4590;BME280;2307;48.448;9.216;2023-03-01T09:26:13;95698.06;;;1.11;100.00
4590;BME280;2307;48.448;9.216;2023-03-01T09:28:41;95688.81;;;1.17;100.00
4590;BME280;2307;48.448;9.216;2023-03-01T09:31:08;95700.88;;;1.10;100.00
4590;BME280;2307;48.448;9.216;2023-03-01T09:33:34;95694.50;;;1.12;100.00
4590;BME280;2307;48.448;9.216;2023-03-01T09:36:03;95696.94;;;1.14;100.00
4590;BME280;2307;48.448;9.216;2023-03-01T09:38:30;95701.28;;;1.29;100.00
4590;BME280;2307;48.448;9.216;2023-03-01T09:40:56;95707.19;;;1.46;100.00
4590;BME280;2307;48.448;9.216;2023-03-01T09:43:23;95685.72;;;1.44;100.00
4590;BME280;2307;48.448;9.216;2023-03-01T09:45:52;95696.53;;;1.33;100.00
4590;BME280;2307;48.448;9.216;2023-03-01T09:48:20;95701.97;;;1.46;100.00
4590;BME280;2307;48.448;9.216;2023-03-01T09:50:48;95693.66;;;1.50;100.00
4590;BME280;2307;48.448;9.216;2023-03-01T09:53:17;95696.47;;;1.49;100.00
4590;BME280;2307;48.448;9.216;2023-03-01T09:55:45;95694.06;;;1.62;100.00
4590;BME280;2307;48.448;9.216;2023-03-01T10:01:05;95682.66;;;1.71;99.88
4590;BME280;2307;48.448;9.216;2023-03-01T10:03:36;95682.44;;;1.81;100.00
4590;BME280;2307;48.448;9.216;2023-03-01T10:06:06;95681.25;;;1.83;100.00
4590;BME280;2307;48.448;9.216;2023-03-01T10:08:37;95681.84;;;1.93;100.00
4590;BME280;2307;48.448;9.216;2023-03-01T10:11:12;95678.81;;;2.04;100.00
4590;BME280;2307;48.448;9.216;2023-03-01T10:13:43;95677.28;;;2.10;97.42
4590;BME280;2307;48.448;9.216;2023-03-01T10:16:14;95668.00;;;2.16;97.35
4590;BME280;2307;48.448;9.216;2023-03-01T10:18:42;95675.16;;;2.13;97.49
4590;BME280;2307;48.448;9.216;2023-03-01T10:21:13;95674.28;;;2.21;99.20
4590;BME280;2307;48.448;9.216;2023-03-01T10:23:42;95667.38;;;2.28;99.88
4590;BME280;2307;48.448;9.216;2023-03-01T10:26:15;95676.38;;;2.40;97.09
4590;BME280;2307;48.448;9.216;2023-03-01T10:28:50;95671.19;;;2.55;98.61
4590;BME280;2307;48.448;9.216;2023-03-01T10:31:20;95676.94;;;2.65;94.92
4590;BME280;2307;48.448;9.216;2023-03-01T10:33:53;95673.16;;;2.67;95.17
4590;BME280;2307;48.448;9.216;2023-03-01T10:36:20;95671.38;;;2.83;94.45
4590;BME280;2307;48.448;9.216;2023-03-01T10:38:49;95660.31;;;2.95;91.92
4590;BME280;2307;48.448;9.216;2023-03-01T10:41:17;95654.44;;;3.22;85.85
4590;BME280;2307;48.448;9.216;2023-03-01T10:43:45;95662.75;;;3.68;99.06
4590;BME280;2307;48.448;9.216;2023-03-01T10:46:25;95658.84;;;4.00;85.80
4590;BME280;2307;48.448;9.216;2023-03-01T10:49:09;95658.94;;;4.35;79.77
4590;BME280;2307;48.448;9.216;2023-03-01T10:51:38;95641.16;;;4.86;76.08
4590;BME280;2307;48.448;9.216;2023-03-01T10:54:09;95645.53;;;5.13;68.45
4590;BME280;2307;48.448;9.216;2023-03-01T10:56:49;95627.19;;;5.06;64.60
4590;BME280;2307;48.448;9.216;2023-03-01T10:59:20;95633.53;;;5.31;64.41
4590;BME280;2307;48.448;9.216;2023-03-01T11:01:49;95626.34;;;5.60;64.04
4590;BME280;2307;48.448;9.216;2023-03-01T11:04:27;95628.69;;;6.02;63.70
4590;BME280;2307;48.448;9.216;2023-03-01T11:06:58;95619.41;;;6.19;60.80
4590;BME280;2307;48.448;9.216;2023-03-01T11:09:26;95613.97;;;6.27;59.25
4590;BME280;2307;48.448;9.216;2023-03-01T11:12:02;95609.09;;;6.44;59.69
4590;BME280;2307;48.448;9.216;2023-03-01T11:14:30;95612.50;;;6.71;58.07
4590;BME280;2307;48.448;9.216;2023-03-01T11:17:01;95617.06;;;6.95;56.20
4590;BME280;2307;48.448;9.216;2023-03-01T11:19:27;95610.31;;;7.25;57.20
4590;BME280;2307;48.448;9.216;2023-03-01T11:21:55;95604.75;;;7.46;55.78
4590;BME280;2307;48.448;9.216;2023-03-01T11:24:27;95605.66;;;7.65;53.26
4590;BME280;2307;48.448;9.216;2023-03-01T11:26:56;95602.47;;;7.88;53.63
4590;BME280;2307;48.448;9.216;2023-03-01T11:29:26;95595.31;;;8.26;51.58
4590;BME280;2307;48.448;9.216;2023-03-01T11:31:54;95594.31;;;8.27;51.52
4590;BME280;2307;48.448;9.216;2023-03-01T11:34:23;95598.41;;;8.48;50.43
4590;BME280;2307;48.448;9.216;2023-03-01T11:36:54;95591.88;;;8.26;50.51
4590;BME280;2307;48.448;9.216;2023-03-01T11:39:28;95583.03;;;8.20;50.75
4590;BME280;2307;48.448;9.216;2023-03-01T11:42:02;95586.22;;;8.29;50.59
4590;BME280;2307;48.448;9.216;2023-03-01T11:44:31;95574.28;;;8.51;50.55
4590;BME280;2307;48.448;9.216;2023-03-01T11:47:04;95576.34;;;8.85;49.81
4590;BME280;2307;48.448;9.216;2023-03-01T11:49:40;95566.16;;;9.25;48.65
4590;BME280;2307;48.448;9.216;2023-03-01T11:52:17;95565.72;;;9.28;47.22
4590;BME280;2307;48.448;9.216;2023-03-01T11:54:50;95558.66;;;9.40;47.15
4590;BME280;2307;48.448;9.216;2023-03-01T11:57:33;95559.88;;;9.56;47.53
4590;BME280;2307;48.448;9.216;2023-03-01T12:00:11;95551.19;;;9.67;46.71
4590;BME280;2307;48.448;9.216;2023-03-01T12:05:28;95540.28;;;9.64;46.73
4590;BME280;2307;48.448;9.216;2023-03-01T12:08:04;95545.81;;;9.74;47.02
4590;BME280;2307;48.448;9.216;2023-03-01T12:10:35;95538.75;;;9.86;46.14
4590;BME280;2307;48.448;9.216;2023-03-01T12:16:05;95529.13;;;9.91;45.64
4590;BME280;2307;48.448;9.216;2023-03-01T12:18:52;95521.44;;;10.13;49.04
4590;BME280;2307;48.448;9.216;2023-03-01T12:21:27;95519.28;;;10.10;44.61
4590;BME280;2307;48.448;9.216;2023-03-01T12:24:10;95513.22;;;10.44;44.55
4590;BME280;2307;48.448;9.216;2023-03-01T12:26:42;95513.19;;;10.68;44.63
4590;BME280;2307;48.448;9.216;2023-03-01T12:29:15;95514.38;;;10.48;44.63
4590;BME280;2307;48.448;9.216;2023-03-01T12:31:49;95511.03;;;10.53;43.75
4590;BME280;2307;48.448;9.216;2023-03-01T12:34:26;95503.00;;;10.48;43.29
4590;BME280;2307;48.448;9.216;2023-03-01T12:39:43;95491.00;;;10.80;42.82
4590;BME280;2307;48.448;9.216;2023-03-01T12:42:16;95485.13;;;10.90;42.30
4590;BME280;2307;48.448;9.216;2023-03-01T12:44:54;95483.91;;;11.09;42.57
4590;BME280;2307;48.448;9.216;2023-03-01T12:47:26;95477.13;;;11.13;42.91
4590;BME280;2307;48.448;9.216;2023-03-01T12:49:57;95476.88;;;11.14;43.01
4590;BME280;2307;48.448;9.216;2023-03-01T12:52:26;95468.94;;;10.86;43.02
4590;BME280;2307;48.448;9.216;2023-03-01T12:54:54;95458.16;;;11.16;43.33
4590;BME280;2307;48.448;9.216;2023-03-01T12:57:24;95467.41;;;11.02;42.85
4590;BME280;2307;48.448;9.216;2023-03-01T12:59:59;95463.59;;;11.09;42.96
4590;BME280;2307;48.448;9.216;2023-03-01T13:02:30;95453.88;;;11.43;42.38
4590;BME280;2307;48.448;9.216;2023-03-01T13:05:06;95451.41;;;11.53;41.89
4590;BME280;2307;48.448;9.216;2023-03-01T13:07:40;95450.34;;;11.54;42.67
4590;BME280;2307;48.448;9.216;2023-03-01T13:10:16;95441.66;;;11.70;42.03
4590;BME280;2307;48.448;9.216;2023-03-01T13:12:49;95445.88;;;11.38;42.68
4590;BME280;2307;48.448;9.216;2023-03-01T13:15:26;95438.31;;;11.30;42.68
4590;BME280;2307;48.448;9.216;2023-03-01T13:17:55;95445.09;;;10.98;42.32
4590;BME280;2307;48.448;9.216;2023-03-01T13:20:23;95445.38;;;11.41;42.65
4590;BME280;2307;48.448;9.216;2023-03-01T13:22:59;95444.25;;;11.37;42.77
4590;BME280;2307;48.448;9.216;2023-03-01T13:25:26;95438.75;;;11.10;43.08
4590;BME280;2307;48.448;9.216;2023-03-01T13:27:53;95428.34;;;11.20;43.26
4590;BME280;2307;48.448;9.216;2023-03-01T13:30:40;95434.03;;;11.12;43.75
4590;BME280;2307;48.448;9.216;2023-03-01T13:35:53;95435.59;;;11.25;42.92
4590;BME280;2307;48.448;9.216;2023-03-01T13:38:36;95436.13;;;10.71;42.86